Time,TemperatureF,DewpointF,PressureIn,WindDirection,WindDirectionDegrees,WindSpeedMPH,WindSpeedGustMPH,Humidity,HourlyPrecipIn,Conditions,Clouds,dailyrainin,SoftwareType,DateUTC
2013-01-22 00:00:00,48.9,41.3,29.95,West,275,6.0,12.0,75,0.00,,SKC,0.00,VWS V13.00,2013-01-22 05:00:00,
2013-01-22 00:01:00,48.9,41.3,29.95,West,279,10.0,12.0,75,0.00,,SKC,0.00,VWS V13.00,2013-01-22 05:01:00,
2013-01-22 00:02:00,48.9,41.3,29.95,West,276,11.0,11.0,75,0.00,,SKC,0.00,VWS V13.00,2013-01-22 05:02:00,
2013-01-22 00:07:00,49.1,41.5,29.95,West,275,10.0,17.0,75,0.00,,SKC,0.00,VWS V13.00,2013-01-22 05:07:00,
2013-01-22 00:12:00,49.4,41.5,29.95,WNW,292,5.0,11.0,74,0.00,,SKC,0.00,VWS V13.00,2013-01-22 05:12:00,
2013-01-22 00:17:00,49.6,41.7,29.95,WNW,295,7.0,16.0,74,0.00,,SKC,0.00,VWS V13.00,2013-01-22 05:17:00,
2013-01-22 00:22:00,49.7,41.8,29.95,WNW,292,7.0,13.0,74,0.00,,SKC,0.00,VWS V13.00,2013-01-22 05:22:00,
2013-01-22 00:27:00,49.8,41.5,29.95,WNW,299,10.0,12.0,73,0.00,,SKC,0.00,VWS V13.00,2013-01-22 05:27:00,
2013-01-22 00:32:00,49.8,41.5,29.95,NW,305,9.0,13.0,73,0.00,,SKC,0.00,VWS V13.00,2013-01-22 05:32:00,
2013-01-22 00:37:00,49.7,41.4,29.96,NW,306,8.0,12.0,73,0.00,,SKC,0.00,VWS V13.00,2013-01-22 05:37:00,
2013-01-22 00:42:00,49.6,41.3,29.95,West,275,7.0,8.0,73,0.00,,SKC,0.00,VWS V13.00,2013-01-22 05:42:00,
2013-01-22 00:47:00,49.4,41.1,29.95,NW,306,2.0,10.0,73,0.00,,SKC,0.00,VWS V13.00,2013-01-22 05:47:00,
2013-01-22 00:52:00,49.2,40.6,29.96,WNW,285,6.0,8.0,72,0.00,,SKC,0.00,VWS V13.00,2013-01-22 05:52:00,
2013-01-22 00:57:00,49.1,40.5,29.96,WNW,296,4.0,8.0,72,0.00,,SKC,0.00,VWS V13.00,2013-01-22 05:57:00,
2013-01-22 01:02:00,48.8,40.2,29.96,WSW,243,6.0,13.0,72,0.00,,SKC,0.00,VWS V13.00,2013-01-22 06:02:00,
2013-01-22 01:07:00,48.6,40.0,29.96,NW,310,11.0,15.0,72,0.00,,SKC,0.00,VWS V13.00,2013-01-22 06:07:00,
2013-01-22 01:12:00,48.5,39.9,29.96,NW,313,10.0,10.0,72,0.00,,SKC,0.00,VWS V13.00,2013-01-22 06:12:00,
2013-01-22 01:17:00,48.3,39.7,29.96,NW,311,3.0,10.0,72,0.00,,SKC,0.00,VWS V13.00,2013-01-22 06:17:00,
2013-01-22 01:22:00,48.1,39.2,29.96,NNW,327,7.0,9.0,71,0.00,,SKC,0.00,VWS V13.00,2013-01-22 06:22:00,
2013-01-22 01:27:00,47.9,39.0,29.96,West,275,12.0,12.0,71,0.00,,SKC,0.00,VWS V13.00,2013-01-22 06:27:00,
2013-01-22 01:32:00,47.6,38.7,29.97,NW,311,5.0,10.0,71,0.00,,SKC,0.00,VWS V13.00,2013-01-22 06:32:00,
2013-01-22 01:37:00,47.5,38.6,29.97,NW,312,4.0,12.0,71,0.00,,SKC,0.00,VWS V13.00,2013-01-22 06:37:00,
2013-01-22 01:42:00,47.3,38.4,29.97,NW,311,6.0,8.0,71,0.00,,SKC,0.00,VWS V13.00,2013-01-22 06:42:00,
2013-01-22 01:47:00,47.2,38.3,29.97,NNW,334,8.0,8.0,71,0.00,,SKC,0.00,VWS V13.00,2013-01-22 06:47:00,
2013-01-22 01:52:00,47.0,37.7,29.97,NW,306,1.0,8.0,70,0.00,,SKC,0.00,VWS V13.00,2013-01-22 06:52:00,
2013-01-22 01:57:00,46.8,37.5,29.97,NNW,331,8.0,10.0,70,0.00,,SKC,0.00,VWS V13.00,2013-01-22 06:57:00,
2013-01-22 02:02:00,46.7,37.5,29.97,WNW,300,4.0,10.0,70,0.00,,SKC,0.00,VWS V13.00,2013-01-22 07:02:00,
2013-01-22 02:07:00,46.6,37.3,29.98,WSW,249,3.0,9.0,70,0.00,,SKC,0.00,VWS V13.00,2013-01-22 07:07:00,
2013-01-22 02:12:00,46.4,37.2,29.97,NW,316,6.0,6.0,70,0.00,,SKC,0.00,VWS V13.00,2013-01-22 07:12:00,
2013-01-22 02:17:00,46.2,37.0,29.97,NW,317,10.0,10.0,70,0.00,,SKC,0.00,VWS V13.00,2013-01-22 07:17:00,
2013-01-22 02:22:00,46.0,36.4,29.97,NW,310,4.0,8.0,69,0.00,,SKC,0.00,VWS V13.00,2013-01-22 07:22:00,
2013-01-22 02:27:00,45.9,36.3,29.98,WNW,290,3.0,6.0,69,0.00,,SKC,0.00,VWS V13.00,2013-01-22 07:27:00,
2013-01-22 02:32:00,45.8,36.2,29.98,WNW,287,5.0,5.0,69,0.00,,SKC,0.00,VWS V13.00,2013-01-22 07:32:00,
2013-01-22 02:37:00,45.6,36.0,29.98,WNW,298,2.0,8.0,69,0.00,,SKC,0.00,VWS V13.00,2013-01-22 07:37:00,
2013-01-22 02:42:00,45.5,35.9,29.98,NW,308,7.0,8.0,69,0.00,,SKC,0.00,VWS V13.00,2013-01-22 07:42:00,
2013-01-22 02:47:00,45.4,35.8,29.99,NW,317,5.0,5.0,69,0.00,,SKC,0.00,VWS V13.00,2013-01-22 07:47:00,
2013-01-22 02:52:00,45.2,35.7,29.99,WNW,283,1.0,4.0,69,0.00,,SKC,0.00,VWS V13.00,2013-01-22 07:52:00,
2013-01-22 02:57:00,45.0,35.5,29.99,WNW,290,3.0,5.0,69,0.00,,SKC,0.00,VWS V13.00,2013-01-22 07:57:00,
2013-01-22 03:02:00,44.9,35.4,30.00,WNW,291,5.0,5.0,69,0.00,,SKC,0.00,VWS V13.00,2013-01-22 08:02:00,
2013-01-22 03:07:00,44.6,35.1,30.00,NNW,332,6.0,6.0,69,0.00,,SKC,0.00,VWS V13.00,2013-01-22 08:07:00,
2013-01-22 03:12:00,44.4,34.9,30.00,WSW,257,7.0,7.0,69,0.00,,SKC,0.00,VWS V13.00,2013-01-22 08:12:00,
2013-01-22 03:17:00,44.2,34.7,30.00,WNW,288,5.0,7.0,69,0.00,,SKC,0.00,VWS V13.00,2013-01-22 08:17:00,
2013-01-22 03:22:00,44.0,34.1,30.00,WNW,300,5.0,8.0,68,0.00,,SKC,0.00,VWS V13.00,2013-01-22 08:22:00,
2013-01-22 03:27:00,43.8,34.3,30.00,NW,307,3.0,5.0,69,0.00,,SKC,0.00,VWS V13.00,2013-01-22 08:27:00,
2013-01-22 03:32:00,43.6,34.1,30.00,West,265,2.0,8.0,69,0.00,,SKC,0.00,VWS V13.00,2013-01-22 08:32:00,
2013-01-22 03:37:00,43.4,33.9,30.00,WNW,293,0.0,4.0,69,0.00,,SKC,0.00,VWS V13.00,2013-01-22 08:37:00,
2013-01-22 03:42:00,43.2,33.4,30.00,West,271,3.0,4.0,68,0.00,,SKC,0.00,VWS V13.00,2013-01-22 08:42:00,
2013-01-22 03:47:00,43.0,33.2,30.00,West,265,3.0,8.0,68,0.00,,SKC,0.00,VWS V13.00,2013-01-22 08:47:00,
2013-01-22 03:52:00,42.8,33.0,30.00,NNW,334,1.0,3.0,68,0.00,,SKC,0.00,VWS V13.00,2013-01-22 08:52:00,
2013-01-22 03:57:00,42.7,32.9,30.00,NW,315,4.0,6.0,68,0.00,,SKC,0.00,VWS V13.00,2013-01-22 08:57:00,
2013-01-22 04:02:00,42.6,32.8,30.00,WNW,293,6.0,6.0,68,0.00,,SKC,0.00,VWS V13.00,2013-01-22 09:02:00,
2013-01-22 04:07:00,42.5,32.7,30.01,West,279,1.0,4.0,68,0.00,,SKC,0.00,VWS V13.00,2013-01-22 09:07:00,
2013-01-22 04:12:00,42.4,32.6,30.01,WNW,286,6.0,9.0,68,0.00,,SKC,0.00,VWS V13.00,2013-01-22 09:12:00,
2013-01-22 04:17:00,42.3,32.5,30.01,WNW,296,2.0,5.0,68,0.00,,SKC,0.00,VWS V13.00,2013-01-22 09:17:00,
2013-01-22 04:22:00,42.3,32.5,30.02,WNW,302,3.0,3.0,68,0.00,,SKC,0.00,VWS V13.00,2013-01-22 09:22:00,
2013-01-22 04:27:00,42.2,32.4,30.02,WNW,292,1.0,7.0,68,0.00,,SKC,0.00,VWS V13.00,2013-01-22 09:27:00,
2013-01-22 04:32:00,42.0,32.2,30.02,West,280,5.0,5.0,68,0.00,,SKC,0.00,VWS V13.00,2013-01-22 09:32:00,
2013-01-22 04:37:00,41.8,32.0,30.02,WNW,303,5.0,5.0,68,0.00,,SKC,0.00,VWS V13.00,2013-01-22 09:37:00,
2013-01-22 04:42:00,41.6,31.8,30.02,WNW,294,3.0,3.0,68,0.00,,SKC,0.00,VWS V13.00,2013-01-22 09:42:00,
2013-01-22 04:47:00,41.6,31.8,30.03,West,281,2.0,3.0,68,0.00,,SKC,0.00,VWS V13.00,2013-01-22 09:47:00,
2013-01-22 04:52:00,41.5,31.7,30.03,WNW,295,3.0,3.0,68,0.00,,SKC,0.00,VWS V13.00,2013-01-22 09:52:00,
2013-01-22 04:57:00,41.4,31.6,30.03,West,281,8.0,8.0,68,0.00,,SKC,0.00,VWS V13.00,2013-01-22 09:57:00,
2013-01-22 05:02:00,41.4,31.6,30.03,NW,321,2.0,6.0,68,0.00,,SKC,0.00,VWS V13.00,2013-01-22 10:02:00,
2013-01-22 05:07:00,41.4,31.6,30.03,WNW,294,4.0,5.0,68,0.00,,SKC,0.00,VWS V13.00,2013-01-22 10:07:00,
2013-01-22 05:12:00,41.4,31.6,30.03,WNW,294,2.0,7.0,68,0.00,,SKC,0.00,VWS V13.00,2013-01-22 10:12:00,
2013-01-22 05:17:00,41.3,31.5,30.03,NNE,13,1.0,6.0,68,0.00,,SKC,0.00,VWS V13.00,2013-01-22 10:17:00,
2013-01-22 05:22:00,41.2,31.1,30.03,NW,317,5.0,7.0,67,0.00,,SKC,0.00,VWS V13.00,2013-01-22 10:22:00,
2013-01-22 05:27:00,41.1,31.0,30.04,NW,317,6.0,7.0,67,0.00,,SKC,0.00,VWS V13.00,2013-01-22 10:27:00,
2013-01-22 05:32:00,41.0,30.9,30.05,WNW,297,7.0,7.0,67,0.00,,SKC,0.00,VWS V13.00,2013-01-22 10:32:00,
2013-01-22 05:37:00,40.9,30.8,30.05,NW,304,5.0,5.0,67,0.00,,SKC,0.00,VWS V13.00,2013-01-22 10:37:00,
2013-01-22 05:42:00,40.8,30.7,30.05,NNW,332,4.0,8.0,67,0.00,,SKC,0.00,VWS V13.00,2013-01-22 10:42:00,
2013-01-22 05:47:00,40.7,30.6,30.05,NNW,337,6.0,6.0,67,0.00,,SKC,0.00,VWS V13.00,2013-01-22 10:47:00,
2013-01-22 05:52:00,40.7,30.6,30.05,NNW,331,1.0,4.0,67,0.00,,SKC,0.00,VWS V13.00,2013-01-22 10:52:00,
2013-01-22 05:57:00,40.6,30.5,30.05,NW,317,3.0,5.0,67,0.00,,SKC,0.00,VWS V13.00,2013-01-22 10:57:00,
2013-01-22 06:02:00,40.4,30.3,30.06,NW,316,3.0,3.0,67,0.00,,SKC,0.00,VWS V13.00,2013-01-22 11:02:00,
2013-01-22 06:07:00,40.2,30.1,30.07,NNW,327,3.0,7.0,67,0.00,,SKC,0.00,VWS V13.00,2013-01-22 11:07:00,
2013-01-22 06:12:00,40.1,30.0,30.07,NNW,333,3.0,9.0,67,0.00,,SKC,0.00,VWS V13.00,2013-01-22 11:12:00,
2013-01-22 06:17:00,40.0,29.9,30.08,NW,313,5.0,11.0,67,0.00,,SKC,0.00,VWS V13.00,2013-01-22 11:17:00,
2013-01-22 06:22:00,39.9,29.5,30.08,NW,318,6.0,11.0,66,0.00,,SKC,0.00,VWS V13.00,2013-01-22 11:22:00,
2013-01-22 06:27:00,39.8,29.4,30.08,NW,311,5.0,11.0,66,0.00,,SKC,0.00,VWS V13.00,2013-01-22 11:27:00,
2013-01-22 06:32:00,39.6,29.2,30.08,NNW,327,3.0,7.0,66,0.00,,SKC,0.00,VWS V13.00,2013-01-22 11:32:00,
2013-01-22 06:37:00,39.5,29.1,30.09,NW,320,4.0,5.0,66,0.00,,SKC,0.00,VWS V13.00,2013-01-22 11:37:00,
2013-01-22 06:42:00,39.3,28.9,30.09,NW,326,7.0,8.0,66,0.00,,SKC,0.00,VWS V13.00,2013-01-22 11:42:00,
2013-01-22 06:47:00,39.2,28.8,30.10,NW,316,5.0,6.0,66,0.00,,SKC,0.00,VWS V13.00,2013-01-22 11:47:00,
2013-01-22 06:52:00,39.1,28.7,30.10,NW,323,6.0,11.0,66,0.00,,SKC,0.00,VWS V13.00,2013-01-22 11:52:00,
2013-01-22 06:57:00,39.0,28.6,30.11,NNW,344,3.0,4.0,66,0.00,,SKC,0.00,VWS V13.00,2013-01-22 11:57:00,
2013-01-22 07:02:00,38.8,28.1,30.11,NNW,340,1.0,5.0,65,0.00,,SKC,0.00,VWS V13.00,2013-01-22 12:02:00,
2013-01-22 07:07:00,38.7,28.0,30.11,NNW,344,3.0,9.0,65,0.00,,SKC,0.00,VWS V13.00,2013-01-22 12:07:00,
2013-01-22 07:12:00,38.6,27.9,30.11,NNW,343,6.0,8.0,65,0.00,,SKC,0.00,VWS V13.00,2013-01-22 12:12:00,
2013-01-22 07:17:00,38.4,27.7,30.11,NNE,15,2.0,6.0,65,0.00,,SKC,0.00,VWS V13.00,2013-01-22 12:17:00,
2013-01-22 07:22:00,38.2,27.5,30.11,NNW,338,1.0,7.0,65,0.00,,SKC,0.00,VWS V13.00,2013-01-22 12:22:00,
2013-01-22 07:27:00,38.1,27.4,30.12,NNE,19,0.0,5.0,65,0.00,,SKC,0.00,VWS V13.00,2013-01-22 12:27:00,
2013-01-22 07:32:00,37.9,27.2,30.12,North,11,5.0,5.0,65,0.00,,SKC,0.00,VWS V13.00,2013-01-22 12:32:00,
2013-01-22 07:37:00,37.8,27.1,30.13,NNW,330,2.0,8.0,65,0.00,,SKC,0.00,VWS V13.00,2013-01-22 12:37:00,
2013-01-22 07:42:00,37.6,26.9,30.13,North,360,6.0,12.0,65,0.00,,SKC,0.00,VWS V13.00,2013-01-22 12:42:00,
2013-01-22 07:47:00,37.4,26.4,30.14,North,360,5.0,7.0,64,0.00,,SKC,0.00,VWS V13.00,2013-01-22 12:47:00,
2013-01-22 07:52:00,37.3,26.3,30.13,NNE,13,9.0,15.0,64,0.00,,SKC,0.00,VWS V13.00,2013-01-22 12:52:00,
2013-01-22 07:57:00,37.2,26.2,30.14,North,11,7.0,10.0,64,0.00,,SKC,0.00,VWS V13.00,2013-01-22 12:57:00,
2013-01-22 08:03:00,37.1,26.1,30.14,NW,316,4.0,8.0,64,0.00,,SKC,0.00,VWS V13.00,2013-01-22 13:03:00,
2013-01-22 08:08:00,37.0,26.0,30.14,NNW,331,4.0,8.0,64,0.00,,SKC,0.00,VWS V13.00,2013-01-22 13:08:00,
2013-01-22 08:13:00,37.0,26.0,30.15,North,5,7.0,11.0,64,0.00,,SKC,0.00,VWS V13.00,2013-01-22 13:13:00,
2013-01-22 08:18:00,36.9,25.9,30.15,NW,325,8.0,9.0,64,0.00,,SKC,0.00,VWS V13.00,2013-01-22 13:18:00,
2013-01-22 08:23:00,36.9,25.9,30.15,NNE,32,6.0,14.0,64,0.00,,SKC,0.00,VWS V13.00,2013-01-22 13:23:00,
2013-01-22 08:28:00,37.0,26.0,30.15,North,355,6.0,9.0,64,0.00,,SKC,0.00,VWS V13.00,2013-01-22 13:28:00,
2013-01-22 08:33:00,37.1,25.7,30.16,NW,326,1.0,7.0,63,0.00,,SKC,0.00,VWS V13.00,2013-01-22 13:33:00,
2013-01-22 08:38:00,37.2,25.8,30.16,NNW,340,14.0,14.0,63,0.00,,SKC,0.00,VWS V13.00,2013-01-22 13:38:00,
2013-01-22 08:43:00,37.3,25.9,30.16,NW,315,9.0,14.0,63,0.00,,SKC,0.00,VWS V13.00,2013-01-22 13:43:00,
2013-01-22 08:48:00,37.4,26.0,30.17,North,5,11.0,11.0,63,0.00,,SKC,0.00,VWS V13.00,2013-01-22 13:48:00,
2013-01-22 08:53:00,37.7,26.3,30.17,NNW,336,5.0,9.0,63,0.00,,SKC,0.00,VWS V13.00,2013-01-22 13:53:00,
2013-01-22 08:58:00,38.0,26.1,30.17,NNW,339,12.0,13.0,62,0.00,,SKC,0.00,VWS V13.00,2013-01-22 13:58:00,
2013-01-22 09:03:00,38.1,26.2,30.17,North,5,8.0,16.0,62,0.00,,SKC,0.00,VWS V13.00,2013-01-22 14:03:00,
2013-01-22 09:08:00,38.2,26.3,30.17,North,355,7.0,15.0,62,0.00,,SKC,0.00,VWS V13.00,2013-01-22 14:08:00,
2013-01-22 09:13:00,38.3,26.0,30.17,NNW,338,4.0,10.0,61,0.00,,SKC,0.00,VWS V13.00,2013-01-22 14:13:00,
2013-01-22 09:18:00,38.5,26.2,30.18,NNW,344,7.0,15.0,61,0.00,,SKC,0.00,VWS V13.00,2013-01-22 14:18:00,
2013-01-22 09:23:00,38.6,26.3,30.17,NNW,344,3.0,14.0,61,0.00,,SKC,0.00,VWS V13.00,2013-01-22 14:23:00,
2013-01-22 09:28:00,38.9,26.6,30.18,NNW,342,14.0,14.0,61,0.00,,SKC,0.00,VWS V13.00,2013-01-22 14:28:00,
2013-01-22 09:33:00,38.9,26.6,30.18,NNW,342,10.0,16.0,61,0.00,,SKC,0.00,VWS V13.00,2013-01-22 14:33:00,
2013-01-22 09:38:00,39.1,26.4,30.18,NW,325,10.0,10.0,60,0.00,,SKC,0.00,VWS V13.00,2013-01-22 14:38:00,
2013-01-22 09:43:00,39.4,27.1,30.18,NNW,330,0.0,8.0,61,0.00,,SKC,0.00,VWS V13.00,2013-01-22 14:43:00,
2013-01-22 09:48:00,39.6,26.9,30.19,NNW,327,3.0,14.0,60,0.00,,SKC,0.00,VWS V13.00,2013-01-22 14:48:00,
2013-01-22 09:53:00,40.1,27.8,30.19,NW,326,11.0,14.0,61,0.00,,SKC,0.00,VWS V13.00,2013-01-22 14:53:00,
2013-01-22 09:58:00,40.6,27.8,30.19,North,10,5.0,13.0,60,0.00,,SKC,0.00,VWS V13.00,2013-01-22 14:58:00,
2013-01-22 10:03:00,40.6,27.8,30.19,NNW,344,10.0,10.0,60,0.00,,SKC,0.00,VWS V13.00,2013-01-22 15:03:00,
2013-01-22 10:08:00,40.8,27.6,30.19,NNW,338,10.0,12.0,59,0.00,,SKC,0.00,VWS V13.00,2013-01-22 15:08:00,
2013-01-22 10:13:00,40.5,26.9,30.19,NW,316,12.0,15.0,58,0.00,,SKC,0.00,VWS V13.00,2013-01-22 15:13:00,
2013-01-22 10:18:00,40.4,27.2,30.19,North,360,11.0,12.0,59,0.00,,SKC,0.00,VWS V13.00,2013-01-22 15:18:00,
2013-01-22 10:23:00,40.8,27.6,30.19,North,350,4.0,9.0,59,0.00,,SKC,0.00,VWS V13.00,2013-01-22 15:23:00,
2013-01-22 10:28:00,41.1,27.9,30.19,North,355,10.0,12.0,59,0.00,,SKC,0.00,VWS V13.00,2013-01-22 15:28:00,
2013-01-22 10:33:00,41.2,28.0,30.19,NNW,333,7.0,13.0,59,0.00,,SKC,0.00,VWS V13.00,2013-01-22 15:33:00,
2013-01-22 10:38:00,41.7,28.4,30.19,North,355,11.0,11.0,59,0.00,,SKC,0.00,VWS V13.00,2013-01-22 15:38:00,
2013-01-22 10:43:00,42.0,28.7,30.19,NNW,327,11.0,12.0,59,0.00,,SKC,0.00,VWS V13.00,2013-01-22 15:43:00,
2013-01-22 10:48:00,42.3,28.6,30.19,NNW,331,3.0,11.0,58,0.00,,SKC,0.00,VWS V13.00,2013-01-22 15:48:00,
2013-01-22 10:53:00,42.5,28.8,30.19,NNE,24,7.0,11.0,58,0.00,,SKC,0.00,VWS V13.00,2013-01-22 15:53:00,
2013-01-22 10:58:00,42.4,28.7,30.19,North,355,6.0,11.0,58,0.00,,SKC,0.00,VWS V13.00,2013-01-22 15:58:00,
2013-01-22 11:03:00,42.2,28.5,30.19,North,5,4.0,9.0,58,0.00,,SKC,0.00,VWS V13.00,2013-01-22 16:03:00,
2013-01-22 11:08:00,42.4,28.7,30.19,NW,310,8.0,11.0,58,0.00,,SKC,0.00,VWS V13.00,2013-01-22 16:08:00,
2013-01-22 11:13:00,42.8,29.1,30.19,NNW,333,10.0,10.0,58,0.00,,SKC,0.00,VWS V13.00,2013-01-22 16:13:00,
2013-01-22 11:18:00,43.0,28.8,30.19,NNW,333,13.0,16.0,57,0.00,,SKC,0.00,VWS V13.00,2013-01-22 16:18:00,
2013-01-22 11:23:00,43.4,29.2,30.20,WNW,303,7.0,18.0,57,0.00,,SKC,0.00,VWS V13.00,2013-01-22 16:23:00,
2013-01-22 11:28:00,43.7,29.5,30.20,NW,319,10.0,10.0,57,0.00,,SKC,0.00,VWS V13.00,2013-01-22 16:28:00,
2013-01-22 11:33:00,44.0,29.8,30.19,WNW,290,10.0,15.0,57,0.00,,SKC,0.00,VWS V13.00,2013-01-22 16:33:00,
2013-01-22 11:38:00,44.2,29.5,30.19,NW,317,4.0,11.0,56,0.00,,SKC,0.00,VWS V13.00,2013-01-22 16:38:00,
2013-01-22 11:43:00,43.8,29.1,30.19,NW,305,9.0,13.0,56,0.00,,SKC,0.00,VWS V13.00,2013-01-22 16:43:00,
2013-01-22 11:48:00,43.8,29.1,30.18,North,9,8.0,14.0,56,0.00,,SKC,0.00,VWS V13.00,2013-01-22 16:48:00,
2013-01-22 11:53:00,43.7,29.0,30.18,NW,311,13.0,17.0,56,0.00,,SKC,0.00,VWS V13.00,2013-01-22 16:53:00,
2013-01-22 11:58:00,44.0,29.3,30.18,West,275,8.0,14.0,56,0.00,,SKC,0.00,VWS V13.00,2013-01-22 16:58:00,
2013-01-22 12:03:00,44.2,29.5,30.18,WNW,290,10.0,10.0,56,0.00,,SKC,0.00,VWS V13.00,2013-01-22 17:03:00,
2013-01-22 12:08:00,44.5,29.8,30.18,NNW,338,3.0,11.0,56,0.00,,SKC,0.00,VWS V13.00,2013-01-22 17:08:00,
2013-01-22 12:13:00,44.8,29.6,30.18,WNW,294,4.0,12.0,55,0.00,,SKC,0.00,VWS V13.00,2013-01-22 17:13:00,
2013-01-22 12:18:00,45.0,30.3,30.17,NW,304,9.0,17.0,56,0.00,,SKC,0.00,VWS V13.00,2013-01-22 17:18:00,
2013-01-22 12:23:00,45.0,29.8,30.17,North,11,2.0,10.0,55,0.00,,SKC,0.00,VWS V13.00,2013-01-22 17:23:00,
2013-01-22 12:28:00,45.0,29.8,30.17,WNW,286,4.0,14.0,55,0.00,,SKC,0.00,VWS V13.00,2013-01-22 17:28:00,
2013-01-22 12:33:00,45.0,29.4,30.17,NNW,337,8.0,13.0,54,0.00,,SKC,0.00,VWS V13.00,2013-01-22 17:33:00,
2013-01-22 12:38:00,44.8,29.2,30.17,WNW,303,12.0,16.0,54,0.00,,SKC,0.00,VWS V13.00,2013-01-22 17:38:00,
2013-01-22 12:43:00,44.4,28.8,30.17,NW,312,12.0,12.0,54,0.00,,SKC,0.00,VWS V13.00,2013-01-22 17:43:00,
2013-01-22 12:48:00,44.6,29.5,30.16,NNW,341,10.0,11.0,55,0.00,,SKC,0.00,VWS V13.00,2013-01-22 17:48:00,
2013-01-22 12:53:00,45.0,29.4,30.16,WNW,298,6.0,15.0,54,0.00,,SKC,0.00,VWS V13.00,2013-01-22 17:53:00,
2013-01-22 12:58:00,45.0,29.4,30.16,NNW,331,8.0,12.0,54,0.00,,SKC,0.00,VWS V13.00,2013-01-22 17:58:00,
2013-01-22 13:03:00,45.0,29.4,30.16,NNW,348,7.0,11.0,54,0.00,,SKC,0.00,VWS V13.00,2013-01-22 18:03:00,
2013-01-22 13:08:00,45.0,29.4,30.16,NW,311,10.0,10.0,54,0.00,,SKC,0.00,VWS V13.00,2013-01-22 18:08:00,
2013-01-22 13:13:00,45.2,29.1,30.16,North,355,7.0,13.0,53,0.00,,SKC,0.00,VWS V13.00,2013-01-22 18:13:00,
2013-01-22 13:18:00,45.0,28.5,30.16,NW,309,2.0,11.0,52,0.00,,SKC,0.00,VWS V13.00,2013-01-22 18:18:00,
2013-01-22 13:23:00,45.0,28.9,30.15,NW,308,3.0,14.0,53,0.00,,SKC,0.00,VWS V13.00,2013-01-22 18:23:00,
2013-01-22 13:28:00,45.2,29.1,30.16,NW,322,4.0,15.0,53,0.00,,SKC,0.00,VWS V13.00,2013-01-22 18:28:00,
2013-01-22 13:33:00,45.5,29.4,30.15,WNW,289,5.0,8.0,53,0.00,,SKC,0.00,VWS V13.00,2013-01-22 18:33:00,
2013-01-22 13:38:00,45.8,29.7,30.16,WNW,292,6.0,8.0,53,0.00,,SKC,0.00,VWS V13.00,2013-01-22 18:38:00,
2013-01-22 13:43:00,46.0,29.4,30.15,NNE,27,9.0,13.0,52,0.00,,SKC,0.00,VWS V13.00,2013-01-22 18:43:00,
2013-01-22 13:48:00,45.8,29.2,30.15,NW,316,8.0,13.0,52,0.00,,SKC,0.00,VWS V13.00,2013-01-22 18:48:00,
2013-01-22 13:53:00,45.8,28.7,30.15,WNW,293,8.0,13.0,51,0.00,,SKC,0.00,VWS V13.00,2013-01-22 18:53:00,
2013-01-22 13:58:00,46.0,29.4,30.15,NW,314,8.0,10.0,52,0.00,,SKC,0.00,VWS V13.00,2013-01-22 18:58:00,
2013-01-22 14:03:00,46.1,29.5,30.16,WNW,302,6.0,11.0,52,0.00,,SKC,0.00,VWS V13.00,2013-01-22 19:03:00,
2013-01-22 14:08:00,46.4,29.8,30.16,NW,320,6.0,14.0,52,0.00,,SKC,0.00,VWS V13.00,2013-01-22 19:08:00,
2013-01-22 14:13:00,46.2,28.6,30.15,NNW,340,3.0,10.0,50,0.00,,SKC,0.00,VWS V13.00,2013-01-22 19:13:00,
2013-01-22 14:18:00,45.9,28.3,30.15,NW,320,11.0,13.0,50,0.00,,SKC,0.00,VWS V13.00,2013-01-22 19:18:00,
2013-01-22 14:23:00,46.0,28.4,30.15,NW,323,4.0,15.0,50,0.00,,SKC,0.00,VWS V13.00,2013-01-22 19:23:00,
2013-01-22 14:28:00,46.1,28.5,30.15,NNW,341,4.0,10.0,50,0.00,,SKC,0.00,VWS V13.00,2013-01-22 19:28:00,
2013-01-22 14:33:00,46.0,28.4,30.15,NNW,333,6.0,18.0,50,0.00,,SKC,0.00,VWS V13.00,2013-01-22 19:33:00,
2013-01-22 14:38:00,45.9,28.3,30.15,NW,314,5.0,9.0,50,0.00,,SKC,0.00,VWS V13.00,2013-01-22 19:38:00,
2013-01-22 14:43:00,45.8,28.2,30.15,NW,325,6.0,13.0,50,0.00,,SKC,0.00,VWS V13.00,2013-01-22 19:43:00,
2013-01-22 14:48:00,45.8,27.7,30.16,WNW,290,10.0,10.0,49,0.00,,SKC,0.00,VWS V13.00,2013-01-22 19:48:00,
2013-01-22 14:53:00,45.6,27.6,30.15,NW,315,10.0,12.0,49,0.00,,SKC,0.00,VWS V13.00,2013-01-22 19:53:00,
2013-01-22 14:58:00,45.6,27.6,30.16,NW,307,8.0,12.0,49,0.00,,SKC,0.00,VWS V13.00,2013-01-22 19:58:00,
2013-01-22 15:03:00,45.7,27.6,30.16,NW,316,7.0,13.0,49,0.00,,SKC,0.00,VWS V13.00,2013-01-22 20:03:00,
2013-01-22 15:08:00,45.4,27.4,30.15,WNW,300,5.0,10.0,49,0.00,,SKC,0.00,VWS V13.00,2013-01-22 20:08:00,
2013-01-22 15:13:00,45.4,27.4,30.16,NNW,338,8.0,11.0,49,0.00,,SKC,0.00,VWS V13.00,2013-01-22 20:13:00,
2013-01-22 15:18:00,45.1,26.6,30.16,NNW,347,3.0,7.0,48,0.00,,SKC,0.00,VWS V13.00,2013-01-22 20:18:00,
2013-01-22 15:23:00,45.0,26.5,30.16,WNW,294,3.0,10.0,48,0.00,,SKC,0.00,VWS V13.00,2013-01-22 20:23:00,
2013-01-22 15:28:00,45.0,26.5,30.16,NNW,346,7.0,7.0,48,0.00,,SKC,0.00,VWS V13.00,2013-01-22 20:28:00,
2013-01-22 15:33:00,44.7,26.2,30.16,WNW,301,1.0,15.0,48,0.00,,SKC,0.00,VWS V13.00,2013-01-22 20:33:00,
2013-01-22 15:38:00,44.6,26.1,30.16,WNW,303,6.0,13.0,48,0.00,,SKC,0.00,VWS V13.00,2013-01-22 20:38:00,
2013-01-22 15:43:00,44.3,25.4,30.16,NW,313,8.0,9.0,47,0.00,,SKC,0.00,VWS V13.00,2013-01-22 20:43:00,
2013-01-22 15:48:00,44.2,25.3,30.16,WNW,298,6.0,12.0,47,0.00,,SKC,0.00,VWS V13.00,2013-01-22 20:48:00,
2013-01-22 15:53:00,44.1,25.7,30.16,NW,315,2.0,9.0,48,0.00,,SKC,0.00,VWS V13.00,2013-01-22 20:53:00,
2013-01-22 15:58:00,43.9,25.5,30.16,NNW,327,4.0,6.0,48,0.00,,SKC,0.00,VWS V13.00,2013-01-22 20:58:00,
2013-01-22 16:03:00,43.7,25.3,30.17,NW,313,10.0,13.0,48,0.00,,SKC,0.00,VWS V13.00,2013-01-22 21:03:00,
2013-01-22 16:08:00,43.5,25.1,30.17,NNW,328,1.0,9.0,48,0.00,,SKC,0.00,VWS V13.00,2013-01-22 21:08:00,
2013-01-22 16:13:00,43.4,25.0,30.17,West,269,4.0,8.0,48,0.00,,SKC,0.00,VWS V13.00,2013-01-22 21:13:00,
2013-01-22 16:18:00,43.3,24.9,30.17,NW,310,2.0,7.0,48,0.00,,SKC,0.00,VWS V13.00,2013-01-22 21:18:00,
2013-01-22 16:23:00,43.1,24.8,30.17,NW,316,3.0,13.0,48,0.00,,SKC,0.00,VWS V13.00,2013-01-22 21:23:00,
2013-01-22 16:28:00,42.9,24.6,30.18,NW,325,4.0,10.0,48,0.00,,SKC,0.00,VWS V13.00,2013-01-22 21:28:00,
2013-01-22 16:31:00,42.7,24.4,30.18,NW,320,5.0,11.0,48,0.00,,SKC,0.00,VWS V13.00,2013-01-22 21:31:00,
2013-01-22 16:36:00,42.5,24.2,30.18,NNW,329,3.0,10.0,48,0.00,,SKC,0.00,VWS V13.00,2013-01-22 21:36:00,
2013-01-22 16:41:00,42.2,23.9,30.18,NNW,347,6.0,10.0,48,0.00,,SKC,0.00,VWS V13.00,2013-01-22 21:41:00,
2013-01-22 16:46:00,41.9,23.7,30.19,NNE,19,4.0,11.0,48,0.00,,SKC,0.00,VWS V13.00,2013-01-22 21:46:00,
2013-01-22 16:51:00,41.6,23.4,30.19,NNE,15,1.0,9.0,48,0.00,,SKC,0.00,VWS V13.00,2013-01-22 21:51:00,
2013-01-22 16:56:00,41.3,23.1,30.19,NNW,329,5.0,8.0,48,0.00,,SKC,0.00,VWS V13.00,2013-01-22 21:56:00,
2013-01-22 17:01:00,41.0,22.8,30.19,NW,318,5.0,6.0,48,0.00,,SKC,0.00,VWS V13.00,2013-01-22 22:01:00,
2013-01-22 17:07:00,40.7,22.5,30.19,North,349,3.0,7.0,48,0.00,,SKC,0.00,VWS V13.00,2013-01-22 22:07:00,
2013-01-22 17:12:00,40.4,22.3,30.19,North,350,6.0,6.0,48,0.00,,SKC,0.00,VWS V13.00,2013-01-22 22:12:00,
2013-01-22 17:17:00,40.1,22.0,30.20,North,350,4.0,9.0,48,0.00,,SKC,0.00,VWS V13.00,2013-01-22 22:17:00,
2013-01-22 17:22:00,39.8,21.7,30.20,NNW,336,2.0,6.0,48,0.00,,SKC,0.00,VWS V13.00,2013-01-22 22:22:00,
2013-01-22 17:27:00,39.6,21.5,30.20,NW,326,5.0,9.0,48,0.00,,SKC,0.00,VWS V13.00,2013-01-22 22:27:00,
2013-01-22 17:32:00,39.4,21.4,30.21,North,355,6.0,8.0,48,0.00,,SKC,0.00,VWS V13.00,2013-01-22 22:32:00,
2013-01-22 17:37:00,39.2,21.2,30.21,NNW,347,3.0,8.0,48,0.00,,SKC,0.00,VWS V13.00,2013-01-22 22:37:00,
2013-01-22 17:42:00,38.9,20.9,30.21,NNW,336,0.0,3.0,48,0.00,,SKC,0.00,VWS V13.00,2013-01-22 22:42:00,
2013-01-22 17:47:00,38.7,20.7,30.21,North,355,2.0,6.0,48,0.00,,SKC,0.00,VWS V13.00,2013-01-22 22:47:00,
2013-01-22 17:52:00,38.4,20.4,30.21,NW,324,6.0,6.0,48,0.00,,SKC,0.00,VWS V13.00,2013-01-22 22:52:00,
2013-01-22 17:57:00,38.2,20.7,30.22,NNW,344,3.0,4.0,49,0.00,,SKC,0.00,VWS V13.00,2013-01-22 22:57:00,
2013-01-22 18:02:00,38.0,20.5,30.22,NNW,345,0.0,4.0,49,0.00,,SKC,0.00,VWS V13.00,2013-01-22 23:02:00,
2013-01-22 18:07:00,37.8,20.4,30.22,North,350,0.0,5.0,49,0.00,,SKC,0.00,VWS V13.00,2013-01-22 23:07:00,
2013-01-22 18:12:00,37.6,20.2,30.22,North,10,0.0,3.0,49,0.00,,SKC,0.00,VWS V13.00,2013-01-22 23:12:00,
2013-01-22 18:17:00,37.3,19.9,30.23,North,349,3.0,4.0,49,0.00,,SKC,0.00,VWS V13.00,2013-01-22 23:17:00,
2013-01-22 18:22:00,37.2,19.8,30.24,North,351,1.0,2.0,49,0.00,,SKC,0.00,VWS V13.00,2013-01-22 23:22:00,
2013-01-22 18:27:00,37.0,19.6,30.24,North,5,6.0,7.0,49,0.00,,SKC,0.00,VWS V13.00,2013-01-22 23:27:00,
2013-01-22 18:32:00,36.8,19.5,30.24,North,9,1.0,4.0,49,0.00,,SKC,0.00,VWS V13.00,2013-01-22 23:32:00,
2013-01-22 18:37:00,36.6,19.3,30.23,NNW,339,5.0,8.0,49,0.00,,SKC,0.00,VWS V13.00,2013-01-22 23:37:00,
2013-01-22 18:42:00,36.5,19.2,30.24,North,5,1.0,4.0,49,0.00,,SKC,0.00,VWS V13.00,2013-01-22 23:42:00,
2013-01-22 18:47:00,36.3,19.5,30.24,North,5,0.0,3.0,50,0.00,,SKC,0.00,VWS V13.00,2013-01-22 23:47:00,
2013-01-22 18:52:00,36.1,19.3,30.24,NNE,15,2.0,5.0,50,0.00,,SKC,0.00,VWS V13.00,2013-01-22 23:52:00,
2013-01-22 18:57:00,35.8,19.0,30.24,North,355,0.0,3.0,50,0.00,,SKC,0.00,VWS V13.00,2013-01-22 23:57:00,
2013-01-22 19:02:00,35.6,18.8,30.24,North,11,1.0,5.0,50,0.00,,SKC,0.00,VWS V13.00,2013-01-23 00:02:00,
2013-01-22 19:07:00,35.3,18.5,30.24,North,9,2.0,2.0,50,0.00,,SKC,0.00,VWS V13.00,2013-01-23 00:07:00,
2013-01-22 19:12:00,35.1,18.4,30.24,NNE,15,3.0,3.0,50,0.00,,SKC,0.00,VWS V13.00,2013-01-23 00:12:00,
2013-01-22 19:17:00,34.9,18.2,30.24,NNE,13,0.0,3.0,50,0.00,,SKC,0.00,VWS V13.00,2013-01-23 00:17:00,
2013-01-22 19:22:00,34.6,18.3,30.24,NNE,13,2.0,2.0,51,0.00,,SKC,0.00,VWS V13.00,2013-01-23 00:22:00,
2013-01-22 19:27:00,34.4,18.2,30.24,North,5,1.0,3.0,51,0.00,,SKC,0.00,VWS V13.00,2013-01-23 00:27:00,
2013-01-22 19:32:00,34.1,17.9,30.25,North,360,2.0,3.0,51,0.00,,SKC,0.00,VWS V13.00,2013-01-23 00:32:00,
2013-01-22 19:37:00,33.8,17.6,30.25,North,5,0.0,3.0,51,0.00,,SKC,0.00,VWS V13.00,2013-01-23 00:37:00,
2013-01-22 19:42:00,33.7,17.5,30.25,North,5,2.0,4.0,51,0.00,,SKC,0.00,VWS V13.00,2013-01-23 00:42:00,
2013-01-22 19:47:00,33.5,17.3,30.25,North,360,1.0,5.0,51,0.00,,SKC,0.00,VWS V13.00,2013-01-23 00:47:00,
2013-01-22 19:52:00,33.5,17.3,30.25,North,355,2.0,5.0,51,0.00,,SKC,0.00,VWS V13.00,2013-01-23 00:52:00,
2013-01-22 19:57:00,33.5,17.3,30.25,North,9,1.0,5.0,51,0.00,,SKC,0.00,VWS V13.00,2013-01-23 00:57:00,
2013-01-22 20:02:00,33.4,17.2,30.25,North,11,2.0,4.0,51,0.00,,SKC,0.00,VWS V13.00,2013-01-23 01:02:00,
2013-01-22 20:07:00,33.3,17.1,30.25,North,355,1.0,3.0,51,0.00,,SKC,0.00,VWS V13.00,2013-01-23 01:07:00,
2013-01-22 20:12:00,33.2,17.5,30.25,North,5,2.0,5.0,52,0.00,,SKC,0.00,VWS V13.00,2013-01-23 01:12:00,
2013-01-22 20:17:00,33.1,17.4,30.25,NNE,16,0.0,5.0,52,0.00,,SKC,0.00,VWS V13.00,2013-01-23 01:17:00,
2013-01-22 20:22:00,33.0,17.3,30.25,North,5,4.0,4.0,52,0.00,,SKC,0.00,VWS V13.00,2013-01-23 01:22:00,
2013-01-22 20:27:00,32.8,17.1,30.26,NNE,13,3.0,4.0,52,0.00,,SKC,0.00,VWS V13.00,2013-01-23 01:27:00,
2013-01-22 20:32:00,32.7,17.0,30.26,NNE,14,3.0,5.0,52,0.00,,SKC,0.00,VWS V13.00,2013-01-23 01:32:00,
2013-01-22 20:37:00,32.6,17.4,30.26,NNE,17,5.0,6.0,53,0.00,,SKC,0.00,VWS V13.00,2013-01-23 01:37:00,
2013-01-22 20:42:00,32.6,17.4,30.26,NNE,20,3.0,8.0,53,0.00,,SKC,0.00,VWS V13.00,2013-01-23 01:42:00,
2013-01-22 20:47:00,32.6,17.4,30.26,NNE,15,3.0,6.0,53,0.00,,SKC,0.00,VWS V13.00,2013-01-23 01:47:00,
2013-01-22 20:52:00,32.6,17.4,30.26,NNE,13,2.0,3.0,53,0.00,,SKC,0.00,VWS V13.00,2013-01-23 01:52:00,
2013-01-22 20:57:00,32.6,17.4,30.25,North,5,3.0,3.0,53,0.00,,SKC,0.00,VWS V13.00,2013-01-23 01:57:00,
2013-01-22 21:02:00,32.5,16.9,30.25,NNE,15,6.0,6.0,52,0.00,,SKC,0.00,VWS V13.00,2013-01-23 02:02:00,
2013-01-22 21:07:00,32.5,16.9,30.25,NNE,16,1.0,3.0,52,0.00,,SKC,0.00,VWS V13.00,2013-01-23 02:07:00,
2013-01-22 21:12:00,32.4,17.2,30.25,NNE,15,2.0,4.0,53,0.00,,SKC,0.00,VWS V13.00,2013-01-23 02:12:00,
2013-01-22 21:17:00,32.2,16.6,30.26,North,5,3.0,4.0,52,0.00,,SKC,0.00,VWS V13.00,2013-01-23 02:17:00,
2013-01-22 21:22:00,32.1,16.9,30.26,North,355,0.0,5.0,53,0.00,,SKC,0.00,VWS V13.00,2013-01-23 02:22:00,
2013-01-22 21:27:00,31.9,16.7,30.26,NNE,24,3.0,4.0,53,0.00,,SKC,0.00,VWS V13.00,2013-01-23 02:27:00,
2013-01-22 21:32:00,31.8,16.6,30.26,NE,38,1.0,7.0,53,0.00,,SKC,0.00,VWS V13.00,2013-01-23 02:32:00,
2013-01-22 21:37:00,31.8,16.6,30.25,NNE,28,1.0,3.0,53,0.00,,SKC,0.00,VWS V13.00,2013-01-23 02:37:00,
2013-01-22 21:42:00,31.7,16.5,30.26,NNE,25,0.0,4.0,53,0.00,,SKC,0.00,VWS V13.00,2013-01-23 02:42:00,
2013-01-22 21:47:00,31.6,16.5,30.26,North,360,3.0,3.0,53,0.00,,SKC,0.00,VWS V13.00,2013-01-23 02:47:00,
2013-01-22 21:52:00,31.4,16.3,30.26,NNE,25,4.0,6.0,53,0.00,,SKC,0.00,VWS V13.00,2013-01-23 02:52:00,
2013-01-22 21:57:00,31.4,16.3,30.26,NE,40,1.0,5.0,53,0.00,,SKC,0.00,VWS V13.00,2013-01-23 02:57:00,
2013-01-22 22:02:00,31.3,16.2,30.27,North,9,0.0,3.0,53,0.00,,SKC,0.00,VWS V13.00,2013-01-23 03:02:00,
2013-01-22 22:07:00,31.2,16.1,30.27,NNE,12,1.0,2.0,53,0.00,,SKC,0.00,VWS V13.00,2013-01-23 03:07:00,
2013-01-22 22:12:00,31.0,15.9,30.27,NNE,26,0.0,1.0,53,0.00,,SKC,0.00,VWS V13.00,2013-01-23 03:12:00,
2013-01-22 22:17:00,30.7,15.6,30.27,NNE,21,0.0,2.0,53,0.00,,SKC,0.00,VWS V13.00,2013-01-23 03:17:00,
2013-01-22 22:22:00,30.4,15.3,30.27,NNE,13,1.0,2.0,53,0.00,,SKC,0.00,VWS V13.00,2013-01-23 03:22:00,
2013-01-22 22:27:00,30.1,15.1,30.27,NNE,23,1.0,3.0,53,0.00,,SKC,0.00,VWS V13.00,2013-01-23 03:27:00,
2013-01-22 22:32:00,29.8,15.2,30.27,NNE,26,1.0,3.0,54,0.00,,SKC,0.00,VWS V13.00,2013-01-23 03:32:00,
2013-01-22 22:37:00,29.6,15.0,30.27,NNE,26,2.0,2.0,54,0.00,,SKC,0.00,VWS V13.00,2013-01-23 03:37:00,
2013-01-22 22:42:00,29.3,14.7,30.26,North,360,3.0,4.0,54,0.00,,SKC,0.00,VWS V13.00,2013-01-23 03:42:00,
2013-01-22 22:47:00,29.2,14.6,30.27,NNE,15,2.0,4.0,54,0.00,,SKC,0.00,VWS V13.00,2013-01-23 03:47:00,
2013-01-22 22:52:00,29.2,14.6,30.26,NE,42,1.0,3.0,54,0.00,,SKC,0.00,VWS V13.00,2013-01-23 03:52:00,
2013-01-22 22:57:00,29.3,14.7,30.26,NE,55,5.0,5.0,54,0.00,,SKC,0.00,VWS V13.00,2013-01-23 03:57:00,
2013-01-22 23:02:00,29.4,14.8,30.26,NNE,26,4.0,5.0,54,0.00,,SKC,0.00,VWS V13.00,2013-01-23 04:02:00,
2013-01-22 23:07:00,29.6,15.0,30.27,North,5,3.0,5.0,54,0.00,,SKC,0.00,VWS V13.00,2013-01-23 04:07:00,
2013-01-22 23:12:00,29.8,15.2,30.27,NE,36,2.0,4.0,54,0.00,,SKC,0.00,VWS V13.00,2013-01-23 04:12:00,
2013-01-22 23:17:00,29.9,15.3,30.27,North,11,0.0,4.0,54,0.00,,SKC,0.00,VWS V13.00,2013-01-23 04:17:00,
2013-01-22 23:23:00,30.0,15.4,30.27,North,10,1.0,6.0,54,0.00,,SKC,0.00,VWS V13.00,2013-01-23 04:23:00,
2013-01-22 23:28:00,30.0,15.8,30.28,NNE,20,1.0,5.0,55,0.00,,SKC,0.00,VWS V13.00,2013-01-23 04:28:00,
2013-01-22 23:33:00,29.9,15.7,30.28,NNE,16,0.0,3.0,55,0.00,,SKC,0.00,VWS V13.00,2013-01-23 04:33:00,
2013-01-22 23:38:00,29.8,15.6,30.29,NNE,21,4.0,5.0,55,0.00,,SKC,0.00,VWS V13.00,2013-01-23 04:38:00,
2013-01-22 23:43:00,29.8,15.6,30.29,North,5,1.0,3.0,55,0.00,,SKC,0.00,VWS V13.00,2013-01-23 04:43:00,
2013-01-22 23:48:00,29.7,15.5,30.29,North,9,2.0,4.0,55,0.00,,SKC,0.00,VWS V13.00,2013-01-23 04:48:00,
2013-01-22 23:53:00,29.6,15.4,30.29,North,5,3.0,4.0,55,0.00,,SKC,0.00,VWS V13.00,2013-01-23 04:53:00,
2013-01-22 23:58:00,29.4,15.2,30.29,NNE,12,3.0,6.0,55,0.00,,SKC,0.00,VWS V13.00,2013-01-23 04:58:00,